Time;durP1;ratioP1;P1;durP2;ratioP2;P2;SDS_P1;SDS_P2;PMS_P1;PMS_P2;Temp;Humidity;BMP_temperature;BMP_pressure;BME280_temperature;BME280_humidity;BME280_pressure;Samples;Min_cycle;Max_cycle;Signal;HPM_P1;HPM_P2
2024/01/05 00:01:53;;;;;;;9.52;4.85;;;;;;;-0.26;84.51;100331.31;6276347;22;20032;-64
2024/01/05 00:04:19;;;;;;;8.27;4.47;;;;;;;-0.33;84.84;100311.28;6278135;22;20027;-64
2024/01/05 00:06:46;;;;;;;12.73;4.95;;;;;;;-0.12;85.88;100318.19;6277793;22;20027;-63
2024/01/05 00:09:13;;;;;;;8.38;4.15;;;;;;;-0.15;84.02;100329.00;6277428;22;20094;-63
2024/01/05 00:11:40;;;;;;;10.63;4.47;;;;;;;-0.25;84.56;100341.06;6277262;22;20134;-64
2024/01/05 00:14:06;;;;;;;11.85;4.88;;;;;;;-0.16;85.65;100332.63;6278290;22;20047;-63
2024/01/05 00:16:33;;;;;;;10.85;4.32;;;;;;;-0.02;84.26;100330.09;6277194;22;20069;-64
2024/01/05 00:18:59;;;;;;;7.50;3.90;;;;;;;-0.22;84.05;100335.59;6277629;22;20031;-64
2024/01/05 00:21:27;;;;;;;11.32;4.53;;;;;;;-0.17;84.08;100333.53;6278202;22;20020;-63
2024/01/05 00:23:55;;;;;;;7.28;4.20;;;;;;;-0.30;84.64;100340.44;6277345;22;20024;-63
2024/01/05 00:26:22;;;;;;;10.73;4.15;;;;;;;-0.24;84.23;100350.78;6278464;22;20347;-63
2024/01/05 00:28:53;;;;;;;7.03;3.88;;;;;;;-0.16;85.13;100336.16;6277972;22;20024;-64
2024/01/05 00:31:19;;;;;;;4.50;2.67;;;;;;;0.01;85.18;100343.25;6278064;22;20024;-64
2024/01/05 00:33:46;;;;;;;9.95;4.10;;;;;;;-0.01;82.66;100342.50;6277633;22;20462;-64
2024/01/05 00:36:13;;;;;;;9.48;4.55;;;;;;;-0.05;83.39;100340.94;6277905;22;20454;-63
2024/01/05 00:38:47;;;;;;;9.65;4.22;;;;;;;-0.02;83.40;100342.56;6277575;22;20073;-64
2024/01/05 00:41:14;;;;;;;12.30;3.90;;;;;;;-0.07;83.42;100345.50;6277948;22;20093;-63
2024/01/05 00:43:41;;;;;;;9.45;4.45;;;;;;;-0.04;83.20;100344.47;6278225;22;20031;-63
2024/01/05 00:46:08;;;;;;;8.85;4.47;;;;;;;-0.04;83.40;100342.66;6277917;22;20085;-63
2024/01/05 00:48:35;;;;;;;10.85;4.82;;;;;;;-0.20;82.97;100347.03;6278318;22;20082;-63
2024/01/05 00:51:02;;;;;;;10.13;5.00;;;;;;;-0.20;83.32;100339.88;6277370;22;20035;-64
2024/01/05 00:53:29;;;;;;;9.27;4.15;;;;;;;-0.13;83.08;100344.91;6278352;22;20353;-63
2024/01/05 00:55:55;;;;;;;8.30;4.10;;;;;;;-0.36;83.46;100338.06;6277567;22;20058;-63
2024/01/05 00:58:22;;;;;;;10.15;4.45;;;;;;;-0.39;84.39;100331.09;6277819;22;20031;-63
2024/01/05 01:00:49;;;;;;;10.98;4.28;;;;;;;-0.42;83.21;100347.22;6277183;22;20016;-64
2024/01/05 01:03:15;;;;;;;9.00;4.10;;;;;;;-0.32;83.22;100337.84;6277725;22;20081;-63
2024/01/05 01:05:42;;;;;;;7.15;4.18;;;;;;;-0.34;83.23;100330.88;6278489;22;20031;-63
2024/01/05 01:08:09;;;;;;;12.25;5.03;;;;;;;-0.16;84.42;100328.16;6278052;22;20028;-63
2024/01/05 01:10:35;;;;;;;10.23;4.47;;;;;;;-0.09;83.96;100328.69;6277912;22;20023;-64
2024/01/05 01:13:02;;;;;;;7.03;4.18;;;;;;;0.03;84.17;100322.75;6277967;22;20027;-63
2024/01/05 01:15:29;;;;;;;10.52;4.95;;;;;;;0.20;84.49;100335.19;6279860;22;20019;-64
2024/01/05 01:17:55;;;;;;;9.52;5.10;;;;;;;0.29;84.32;100334.72;6279842;22;20077;-64
2024/01/05 01:20:22;;;;;;;10.35;4.88;;;;;;;0.14;82.68;100341.72;6279783;22;20081;-64
2024/01/05 01:22:49;;;;;;;10.85;4.43;;;;;;;-0.04;83.68;100331.13;6278888;22;20454;-63
2024/01/05 01:25:16;;;;;;;8.25;4.18;;;;;;;0.08;84.18;100328.69;6279631;22;20105;-63
2024/01/05 01:27:43;;;;;;;10.02;4.38;;;;;;;0.34;84.43;100321.16;6279183;22;20059;-63
2024/01/05 01:30:10;;;;;;;8.82;4.03;;;;;;;0.41;83.27;100325.22;6253416;22;20028;-63
2024/01/05 01:32:37;;;;;;;8.48;4.18;;;;;;;0.38;82.51;100325.38;6279491;22;20015;-63
2024/01/05 01:35:05;;;;;;;7.30;3.78;;;;;;;0.33;82.50;100327.44;6279257;22;20032;-64
2024/01/05 01:37:32;;;;;;;9.85;4.13;;;;;;;0.05;82.60;100318.19;6279053;22;20024;-65
2024/01/05 01:39:58;;;;;;;16.38;4.43;;;;;;;0.12;82.49;100327.59;6279750;22;20465;-64
2024/01/05 01:42:25;;;;;;;5.55;3.10;;;;;;;0.23;82.87;100311.03;6279519;22;20025;-64
2024/01/05 01:44:52;;;;;;;7.07;3.63;;;;;;;0.09;81.35;100310.88;6279050;22;20031;-63
2024/01/05 01:47:19;;;;;;;7.18;3.80;;;;;;;0.21;81.72;100302.28;6278581;22;20398;-63
2024/01/05 01:49:46;;;;;;;6.78;3.42;;;;;;;-0.26;82.58;100296.69;6278472;22;20027;-63
2024/01/05 01:52:14;;;;;;;6.47;3.53;;;;;;;-0.29;83.08;100287.06;6278351;22;20488;-63
2024/01/05 01:54:41;;;;;;;9.30;4.40;;;;;;;-0.28;83.39;100291.44;6278284;22;20077;-63
2024/01/05 01:57:07;;;;;;;8.20;3.97;;;;;;;-0.35;83.13;100294.47;6276108;22;20027;-63
2024/01/05 01:59:35;;;;;;;9.77;4.68;;;;;;;-0.25;82.58;100285.97;6277779;22;20023;-63
2024/01/05 02:02:03;;;;;;;10.10;4.07;;;;;;;-0.21;82.80;100297.31;6278394;22;20126;-63
2024/01/05 02:04:29;;;;;;;9.50;3.97;;;;;;;0.05;81.90;100304.84;6278111;22;20043;-63
2024/01/05 02:07:22;;;;;;;13.25;4.70;;;;;;;0.09;81.89;100310.88;6278956;22;20031;-64
2024/01/05 02:09:49;;;;;;;8.93;3.40;;;;;;;0.10;81.21;100312.59;6275274;22;20077;-63
2024/01/05 02:12:15;;;;;;;9.23;4.53;;;;;;;0.07;82.76;100310.97;6275874;22;20110;-62
2024/01/05 02:14:44;;;;;;;9.13;4.13;;;;;;;-0.15;81.72;100307.69;6277021;22;20023;-63
2024/01/05 02:17:30;;;;;;;9.40;4.30;;;;;;;-0.13;82.09;100304.94;6276548;22;20020;-63
2024/01/05 02:19:57;;;;;;;11.52;4.47;;;;;;;-0.03;82.79;100306.19;6276741;22;20027;-64
2024/01/05 02:22:28;;;;;;;10.25;4.30;;;;;;;0.10;82.19;100310.81;6277178;22;20025;-62
2024/01/05 02:24:58;;;;;;;9.13;3.80;;;;;;;0.10;82.18;100302.81;6276179;22;20028;-63
2024/01/05 02:27:25;;;;;;;9.23;4.18;;;;;;;0.16;82.50;100306.97;6276206;22;20393;-63
2024/01/05 02:29:52;;;;;;;6.60;3.92;;;;;;;0.36;81.71;100300.59;6276305;22;20083;-63
2024/01/05 02:32:19;;;;;;;11.82;4.47;;;;;;;0.45;81.06;100302.75;6276257;22;20038;-62
2024/01/05 02:34:45;;;;;;;11.77;5.07;;;;;;;0.34;80.09;100299.81;6275790;22;20086;-64
2024/01/05 02:37:12;;;;;;;9.63;4.47;;;;;;;0.00;81.70;100298.88;6276960;22;20023;-62
2024/01/05 02:39:38;;;;;;;9.55;4.63;;;;;;;-0.02;82.55;100287.44;6276551;22;20024;-62
2024/01/05 02:42:06;;;;;;;10.15;5.10;;;;;;;-0.22;83.44;100284.94;6276305;22;20088;-61
2024/01/05 02:44:32;;;;;;;18.33;4.93;;;;;;;-0.23;83.15;100278.75;6276789;22;20103;-64
2024/01/05 02:46:59;;;;;;;13.75;5.03;;;;;;;-0.21;83.37;100270.69;6276071;22;20031;-64
2024/01/05 02:49:25;;;;;;;13.00;5.00;;;;;;;-0.28;84.29;100271.91;6277349;22;20343;-65
2024/01/05 02:51:52;;;;;;;12.30;4.60;;;;;;;-0.26;83.56;100270.03;6276228;22;20047;-63
2024/01/05 02:54:18;;;;;;;12.35;5.03;;;;;;;-0.27;83.35;100265.66;6276253;22;20020;-63
2024/01/05 02:56:45;;;;;;;8.40;4.40;;;;;;;-0.25;83.85;100272.66;6275541;22;20399;-63
2024/01/05 02:59:12;;;;;;;10.23;5.10;;;;;;;-0.34;84.10;100272.25;6275455;22;20031;-63
2024/01/05 03:01:38;;;;;;;12.45;4.47;;;;;;;-0.37;84.44;100270.59;6275017;22;20442;-62
2024/01/05 03:04:05;;;;;;;11.10;4.82;;;;;;;-0.37;83.86;100269.72;6275234;22;20024;-63
2024/01/05 03:06:32;;;;;;;15.07;6.05;;;;;;;-0.30;83.77;100276.47;6275509;22;20524;-64
2024/01/05 03:08:59;;;;;;;12.98;5.20;;;;;;;-0.24;82.95;100276.16;6275991;22;20043;-63
2024/01/05 03:11:26;;;;;;;9.30;4.90;;;;;;;-0.25;83.24;100274.44;6276991;22;20030;-64
2024/01/05 03:13:52;;;;;;;9.60;4.93;;;;;;;-0.32;84.05;100267.69;6277000;22;20081;-63
2024/01/05 03:16:19;;;;;;;13.70;5.07;;;;;;;-0.32;83.55;100259.72;6275736;22;20024;-63
2024/01/05 03:18:45;;;;;;;9.45;5.20;;;;;;;-0.13;83.80;100267.63;6276427;22;20032;-63
2024/01/05 03:21:12;;;;;;;8.38;4.30;;;;;;;-0.22;83.75;100258.28;6275879;22;20094;-63
2024/01/05 03:23:39;;;;;;;8.10;4.80;;;;;;;-0.19;82.91;100248.31;6275948;22;20102;-63
2024/01/05 03:26:09;;;;;;;11.45;4.80;;;;;;;-0.16;83.66;100255.31;6275673;22;20093;-64
2024/01/05 03:28:38;;;;;;;10.48;4.47;;;;;;;-0.26;83.62;100248.72;6277020;22;20027;-63
2024/01/05 03:31:05;;;;;;;10.93;4.68;;;;;;;-0.22;83.96;100247.63;6275156;22;20048;-63
2024/01/05 03:33:31;;;;;;;10.52;4.72;;;;;;;-0.28;83.80;100243.47;6276317;22;20043;-62
2024/01/05 03:35:58;;;;;;;11.65;4.75;;;;;;;-0.47;84.75;100237.34;6262778;22;20081;-64
2024/01/05 03:38:25;;;;;;;9.85;4.80;;;;;;;-0.57;85.12;100231.63;6276420;22;20434;-64
2024/01/05 03:40:52;;;;;;;10.85;4.88;;;;;;;-0.61;85.49;100230.06;6275522;22;20020;-61
2024/01/05 03:43:18;;;;;;;11.25;4.85;;;;;;;-0.57;86.42;100226.31;6276159;22;20023;-62
2024/01/05 03:45:49;;;;;;;15.00;5.20;;;;;;;-0.62;86.60;100227.50;6274922;22;20458;-62
2024/01/05 03:48:16;;;;;;;10.15;4.80;;;;;;;-0.60;86.72;100242.44;6275187;22;20066;-64
2024/01/05 03:50:43;;;;;;;10.57;4.65;;;;;;;-0.64;86.72;100238.19;6275558;22;20094;-63
2024/01/05 03:53:10;;;;;;;12.82;5.70;;;;;;;-0.51;87.42;100235.78;6276078;22;20031;-63
2024/01/05 03:55:37;;;;;;;14.35;5.20;;;;;;;-0.39;86.24;100231.63;6275278;22;20523;-63
2024/01/05 03:58:04;;;;;;;9.00;4.65;;;;;;;-0.60;85.58;100221.13;6275825;22;20093;-63
2024/01/05 04:00:30;;;;;;;9.82;4.97;;;;;;;-0.40;86.17;100240.56;6274822;22;20015;-63
2024/01/05 04:02:57;;;;;;;10.82;5.60;;;;;;;-0.39;86.15;100228.97;6275517;22;20023;-63
2024/01/05 04:05:24;;;;;;;11.70;5.13;;;;;;;-0.43;85.60;100215.81;6275878;22;20019;-63
2024/01/05 04:07:50;;;;;;;11.52;4.90;;;;;;;-0.50;85.87;100217.06;6274657;22;20350;-63
2024/01/05 04:10:18;;;;;;;13.48;6.45;;;;;;;-0.54;85.56;100218.16;6274826;22;20020;-64
2024/01/05 04:12:44;;;;;;;11.73;5.88;;;;;;;-0.60;86.41;100215.81;6274155;22;20026;-62
2024/01/05 04:15:11;;;;;;;13.15;5.25;;;;;;;-0.54;86.32;100214.63;6273145;22;20024;-63
2024/01/05 04:17:37;;;;;;;12.07;5.35;;;;;;;-0.48;85.76;100211.66;6274851;22;20422;-63
2024/01/05 04:20:04;;;;;;;10.10;5.20;;;;;;;-0.54;85.58;100212.81;6274906;22;20034;-62
2024/01/05 04:22:31;;;;;;;10.43;5.38;;;;;;;-0.58;85.89;100213.94;6274053;22;20019;-63
2024/01/05 04:24:58;;;;;;;10.70;5.25;;;;;;;-0.51;85.83;100210.03;6274400;22;20034;-64
2024/01/05 04:27:25;;;;;;;9.93;4.72;;;;;;;-0.40;84.88;100221.94;6249286;22;20516;-63
2024/01/05 04:29:52;;;;;;;11.55;5.25;;;;;;;-0.46;85.78;100213.28;6274837;22;20020;-62
2024/01/05 04:32:19;;;;;;;13.32;5.05;;;;;;;-0.44;85.05;100215.91;6274265;22;20019;-63
2024/01/05 04:34:45;;;;;;;12.20;4.80;;;;;;;-0.48;85.89;100211.66;6275271;22;20031;-63
2024/01/05 04:37:13;;;;;;;15.63;4.85;;;;;;;-0.44;85.75;100211.44;6275111;22;20082;-64
2024/01/05 04:39:40;;;;;;;9.45;4.97;;;;;;;-0.43;85.51;100206.97;6275351;22;20023;-63
2024/01/05 04:42:06;;;;;;;12.65;5.10;;;;;;;-0.08;84.76;100207.78;6275455;22;20034;-61
2024/01/05 04:44:33;;;;;;;10.98;5.70;;;;;;;-0.08;83.38;100199.78;6275386;22;20099;-61
2024/01/05 04:46:59;;;;;;;13.60;5.72;;;;;;;-0.50;84.91;100203.75;6276286;22;20027;-61
2024/01/05 04:49:26;;;;;;;9.65;4.80;;;;;;;-0.58;85.41;100192.63;6277072;22;20027;-63
2024/01/05 04:51:53;;;;;;;11.90;4.70;;;;;;;-0.58;85.99;100192.63;6278265;22;20032;-62
2024/01/05 04:54:20;;;;;;;13.75;5.13;;;;;;;-0.61;85.47;100186.59;6278189;22;20020;-63
2024/01/05 04:56:47;;;;;;;9.32;4.50;;;;;;;-0.52;85.53;100187.00;6277740;22;20394;-63
2024/01/05 04:59:13;;;;;;;8.75;4.30;;;;;;;-0.62;84.96;100180.41;6277687;22;20462;-63
2024/01/05 05:01:40;;;;;;;8.40;4.40;;;;;;;-0.52;84.33;100165.69;6277750;22;20458;-64
2024/01/05 05:04:07;;;;;;;8.93;4.25;;;;;;;-0.60;85.11;100173.19;6277383;22;20023;-63
2024/01/05 05:06:33;;;;;;;12.15;4.43;;;;;;;-0.50;85.22;100170.94;6276954;22;20485;-63
2024/01/05 05:09:00;;;;;;;9.18;3.97;;;;;;;-0.64;85.78;100163.63;6276892;22;20044;-63
2024/01/05 05:11:27;;;;;;;10.95;4.55;;;;;;;-0.58;85.51;100155.34;6277965;22;20119;-63
2024/01/05 05:13:53;;;;;;;8.20;3.92;;;;;;;-0.59;85.96;100161.59;6278107;22;20090;-64
2024/01/05 05:16:20;;;;;;;9.43;4.57;;;;;;;-0.64;85.72;100155.63;6261540;22;20386;-63
2024/01/05 05:18:48;;;;;;;7.15;3.78;;;;;;;-0.65;85.28;100145.94;6246326;23;20032;-63
2024/01/05 05:21:15;;;;;;;5.18;3.38;;;;;;;-0.68;85.32;100143.44;6246821;23;20477;-63
2024/01/05 05:23:43;;;;;;;7.30;3.67;;;;;;;-0.69;85.37;100147.03;6247066;23;20630;-63
2024/01/05 05:26:10;;;;;;;9.57;3.58;;;;;;;-0.73;86.05;100145.44;6247159;23;20485;-63
2024/01/05 05:28:36;;;;;;;9.73;3.78;;;;;;;-0.81;85.85;100143.19;6246239;23;20020;-63
2024/01/05 05:31:03;;;;;;;14.85;4.43;;;;;;;-0.78;86.25;100137.72;6246600;23;20082;-63
2024/01/05 05:33:30;;;;;;;7.03;3.63;;;;;;;-0.83;86.04;100139.72;6245934;23;20066;-63
2024/01/05 05:35:57;;;;;;;10.10;4.53;;;;;;;-0.85;86.35;100141.63;6246831;23;20099;-63
2024/01/05 05:38:24;;;;;;;11.18;4.55;;;;;;;-0.85;86.46;100132.78;6247054;23;20339;-63
2024/01/05 05:40:50;;;;;;;12.68;4.97;;;;;;;-0.83;86.69;100133.53;6247102;23;20024;-62
2024/01/05 05:43:17;;;;;;;14.82;5.32;;;;;;;-0.78;87.04;100129.72;6246598;23;20028;-63
2024/01/05 05:45:44;;;;;;;20.80;6.20;;;;;;;-0.83;86.77;100129.09;6247016;23;20074;-62
2024/01/05 05:48:12;;;;;;;14.68;6.47;;;;;;;-0.91;87.48;100143.72;6246381;23;20086;-62
2024/01/05 05:50:39;;;;;;;16.27;5.82;;;;;;;-0.83;87.93;100138.88;6246426;23;20094;-63
2024/01/05 05:53:06;;;;;;;11.60;5.70;;;;;;;-0.87;87.33;100134.66;6246783;23;20024;-62
2024/01/05 05:55:33;;;;;;;13.48;6.22;;;;;;;-0.88;87.30;100146.25;6245917;23;20016;-63
2024/01/05 05:57:59;;;;;;;13.55;6.25;;;;;;;-0.82;86.98;100151.25;6246269;23;20024;-63
2024/01/05 06:00:31;;;;;;;13.80;5.47;;;;;;;-0.87;87.10;100153.28;6246444;23;20042;-63
2024/01/05 06:02:58;;;;;;;12.75;6.55;;;;;;;-0.69;86.99;100160.34;6247078;23;20024;-63
2024/01/05 06:05:24;;;;;;;13.48;6.43;;;;;;;-0.51;86.15;100158.53;6247567;23;20030;-63
2024/01/05 06:07:51;;;;;;;12.50;5.97;;;;;;;-0.72;87.16;100163.19;6247553;23;20020;-63
2024/01/05 06:10:18;;;;;;;9.80;5.60;;;;;;;-0.78;87.14;100168.81;6246021;23;20315;-64
2024/01/05 06:12:44;;;;;;;9.65;5.18;;;;;;;-0.83;87.45;100165.50;6246107;23;20028;-63
2024/01/05 06:15:11;;;;;;;9.32;4.85;;;;;;;-0.82;88.23;100175.19;6246358;22;20055;-62
2024/01/05 06:17:38;;;;;;;9.40;5.30;;;;;;;-0.77;89.02;100186.50;6247063;23;20026;-63
2024/01/05 06:20:08;;;;;;;10.75;5.35;;;;;;;-0.80;88.99;100181.34;6248197;23;20028;-63
2024/01/05 06:22:34;;;;;;;14.77;6.00;;;;;;;-0.87;89.52;100175.44;6247813;23;20020;-63
2024/01/05 06:25:01;;;;;;;10.38;5.30;;;;;;;-1.02;90.59;100174.41;6248211;23;20023;-64
2024/01/05 06:27:28;;;;;;;12.68;5.55;;;;;;;-1.09;91.24;100174.81;6248656;23;20370;-64
2024/01/05 06:30:05;;;;;;;13.75;5.90;;;;;;;-1.12;91.72;100194.41;6249170;23;20020;-63
2024/01/05 06:32:31;;;;;;;10.05;5.35;;;;;;;-1.13;92.68;100189.19;6248438;23;20051;-63
2024/01/05 06:34:58;;;;;;;12.70;6.28;;;;;;;-1.19;92.49;100200.97;6248831;23;20030;-64
2024/01/05 06:37:24;;;;;;;15.07;6.70;;;;;;;-1.23;93.11;100204.72;6248764;23;20131;-64
2024/01/05 06:39:51;;;;;;;15.32;6.78;;;;;;;-1.20;93.39;100204.56;6248435;23;20079;-64
2024/01/05 06:42:17;;;;;;;12.70;6.45;;;;;;;-1.07;93.30;100199.53;6222464;23;20032;-64
2024/01/05 06:44:44;;;;;;;13.90;6.75;;;;;;;-1.06;93.75;100207.44;6248419;23;20076;-64
2024/01/05 06:47:11;;;;;;;14.07;7.53;;;;;;;-1.05;93.94;100198.50;6248430;23;20059;-64
2024/01/05 06:49:37;;;;;;;18.83;9.05;;;;;;;-1.17;94.61;100209.75;6248107;23;20521;-64
2024/01/05 06:52:04;;;;;;;16.42;8.50;;;;;;;-1.26;95.18;100204.88;6248959;23;20028;-65
2024/01/05 06:54:31;;;;;;;17.50;7.90;;;;;;;-1.29;95.48;100207.66;6248636;23;20359;-65
2024/01/05 06:56:59;;;;;;;19.48;8.32;;;;;;;-1.28;96.05;100206.72;6222994;23;20087;-65
2024/01/05 06:59:30;;;;;;;17.75;8.73;;;;;;;-1.31;95.99;100206.88;6249090;23;20099;-65
2024/01/05 07:01:57;;;;;;;18.33;9.43;;;;;;;-1.29;96.17;100199.69;6248690;23;20024;-65
2024/01/05 07:04:23;;;;;;;18.85;9.07;;;;;;;-1.42;97.12;100193.25;6247593;23;20450;-65
2024/01/05 07:06:50;;;;;;;14.73;8.73;;;;;;;-1.47;97.31;100192.59;6247035;23;20020;-65
2024/01/05 07:09:16;;;;;;;19.77;9.80;;;;;;;-1.57;97.02;100190.34;6246355;23;20028;-65
2024/01/05 07:11:43;;;;;;;26.50;10.77;;;;;;;-1.51;97.54;100193.69;6245391;23;20046;-65
2024/01/05 07:14:11;;;;;;;21.80;10.02;;;;;;;-1.54;97.67;100183.19;6244866;23;20485;-65
2024/01/05 07:16:37;;;;;;;18.52;10.02;;;;;;;-1.63;97.68;100179.16;6245531;22;20082;-65
2024/01/05 07:19:04;;;;;;;23.85;10.13;;;;;;;-1.58;97.89;100183.31;6246080;23;20028;-65
2024/01/05 07:21:31;;;;;;;23.45;11.82;;;;;;;-1.54;98.18;100177.88;6246993;23;20020;-65
2024/01/05 07:23:57;;;;;;;32.15;11.65;;;;;;;-1.47;97.87;100171.31;6249279;23;20020;-65
2024/01/05 07:26:24;;;;;;;26.08;14.05;;;;;;;-1.55;98.02;100170.84;6222996;23;20340;-66
2024/01/05 07:28:50;;;;;;;25.90;12.35;;;;;;;-1.56;98.25;100169.94;6249628;23;20082;-66
2024/01/05 07:31:25;;;;;;;21.63;12.13;;;;;;;-1.52;97.85;100170.69;6250672;23;20409;-66
2024/01/05 07:33:52;;;;;;;25.70;12.32;;;;;;;-1.59;98.30;100176.28;6251872;23;20487;-66
2024/01/05 07:36:19;;;;;;;24.08;12.48;;;;;;;-1.50;98.17;100167.00;6250383;23;20099;-66
2024/01/05 07:38:46;;;;;;;28.30;12.68;;;;;;;-1.58;98.12;100166.50;6251241;23;20035;-66
2024/01/05 07:41:16;;;;;;;28.42;11.95;;;;;;;-1.58;97.97;100166.50;6251085;23;20024;-66
2024/01/05 07:43:44;;;;;;;28.48;12.38;;;;;;;-1.59;98.01;100155.00;6252102;23;20019;-67
2024/01/05 07:46:10;;;;;;;30.77;11.73;;;;;;;-1.57;98.26;100160.25;6249778;23;20339;-66
2024/01/05 07:48:40;;;;;;;25.63;11.52;;;;;;;-1.53;97.64;100156.53;6247955;23;20028;-66
2024/01/05 07:51:08;;;;;;;19.23;8.95;;;;;;;-1.46;97.67;100159.75;6246596;23;20094;-66
2024/01/05 07:53:35;;;;;;;26.25;11.85;;;;;;;-1.51;97.29;100167.06;6246389;23;20024;-66
2024/01/05 07:56:02;;;;;;;24.67;12.00;;;;;;;-1.51;97.34;100164.41;6246367;23;20024;-67
2024/01/05 07:58:29;;;;;;;29.52;12.43;;;;;;;-1.46;97.19;100159.75;6247504;23;20362;-66
2024/01/05 08:00:56;;;;;;;27.58;11.10;;;;;;;-1.51;97.57;100157.31;6246784;23;20370;-65
2024/01/05 08:03:22;;;;;;;26.73;11.85;;;;;;;-1.47;97.28;100153.53;6246230;23;20016;-66
2024/01/05 08:05:49;;;;;;;17.58;9.77;;;;;;;-1.50;96.90;100142.22;6245681;23;20024;-64
2024/01/05 08:08:16;;;;;;;31.08;11.32;;;;;;;-1.52;97.10;100155.59;6244956;23;20057;-64
2024/01/05 08:10:42;;;;;;;22.77;11.82;;;;;;;-1.50;96.88;100168.81;6216752;23;20071;-65
2024/01/05 08:13:09;;;;;;;24.70;12.52;;;;;;;-1.48;97.21;100166.91;6246041;23;20023;-65
2024/01/05 08:15:35;;;;;;;35.90;12.05;;;;;;;-1.43;97.15;100165.78;6245316;22;20406;-65
2024/01/05 08:18:03;;;;;;;29.73;11.63;;;;;;;-1.42;97.10;100169.31;6244778;23;20024;-65
2024/01/05 08:20:30;;;;;;;30.00;12.75;;;;;;;-1.42;97.01;100177.28;6246841;23;20020;-66
2024/01/05 08:23:00;;;;;;;23.65;12.13;;;;;;;-1.41;97.73;100163.03;6249116;23;20027;-67
2024/01/05 08:25:27;;;;;;;23.67;11.60;;;;;;;-1.43;97.51;100165.78;6252107;23;20035;-68
2024/01/05 08:27:53;;;;;;;30.23;12.68;;;;;;;-1.45;97.27;100161.47;6247719;23;20035;-67
2024/01/05 08:30:21;;;;;;;23.75;11.95;;;;;;;-1.45;97.87;100165.00;6245501;23;20090;-67
2024/01/05 08:32:51;;;;;;;27.70;11.85;;;;;;;-1.53;97.42;100168.97;6244517;23;20031;-66
2024/01/05 08:35:18;;;;;;;48.92;18.92;;;;;;;-1.49;97.56;100165.19;6243936;23;20027;-67
2024/01/05 08:37:45;;;;;;;27.77;13.30;;;;;;;-1.52;97.97;100165.34;6244387;23;20074;-67
2024/01/05 08:40:12;;;;;;;24.48;12.25;;;;;;;-1.53;97.70;100171.63;6244264;23;20024;-68
2024/01/05 08:42:40;;;;;;;21.65;11.40;;;;;;;-1.52;97.69;100165.34;6217686;23;20455;-66
2024/01/05 08:45:09;;;;;;;30.23;14.43;;;;;;;-1.57;98.24;100153.13;6243784;23;20028;-67
2024/01/05 08:47:37;;;;;;;29.55;14.13;;;;;;;-1.54;98.35;100148.63;6241856;23;20511;-67
2024/01/05 08:50:06;;;;;;;25.67;12.00;;;;;;;-1.57;98.39;100142.50;6243133;23;20024;-67
2024/01/05 08:52:33;;;;;;;34.72;12.77;;;;;;;-1.52;98.00;100131.66;6243233;23;20036;-67
2024/01/05 08:55:00;;;;;;;23.60;11.15;;;;;;;-1.55;97.95;100139.78;6244648;23;20028;-67
2024/01/05 08:57:26;;;;;;;34.55;12.60;;;;;;;-1.60;98.26;100141.78;6244158;23;20023;-68
2024/01/05 08:59:53;;;;;;;25.60;11.60;;;;;;;-1.60;97.96;100140.00;6243104;23;20028;-68
2024/01/05 09:02:19;;;;;;;25.40;12.18;;;;;;;-1.58;98.38;100140.78;6217161;23;20098;-67
2024/01/05 09:04:46;;;;;;;23.17;12.38;;;;;;;-1.54;98.22;100140.66;6243830;23;20027;-67
2024/01/05 09:07:13;;;;;;;19.67;10.95;;;;;;;-1.47;97.81;100132.28;6244758;23;20044;-66
2024/01/05 09:09:40;;;;;;;24.83;11.40;;;;;;;-1.45;97.61;100134.88;6244609;23;20020;-66
2024/01/05 09:12:08;;;;;;;23.40;12.10;;;;;;;-1.47;97.59;100126.09;6245121;23;20103;-67
2024/01/05 09:14:37;;;;;;;25.35;12.57;;;;;;;-1.36;97.88;100135.28;6246514;23;20023;-67
2024/01/05 09:17:04;;;;;;;22.23;11.73;;;;;;;-1.41;97.31;100149.75;6247684;22;20084;-68
2024/01/05 09:19:32;;;;;;;25.35;12.02;;;;;;;-1.47;97.50;100136.72;6250146;23;20058;-67
2024/01/05 09:21:59;;;;;;;23.75;13.25;;;;;;;-1.40;97.70;100138.16;6252037;23;20044;-67
2024/01/05 09:24:28;;;;;;;34.63;12.25;;;;;;;-1.43;97.27;100128.53;6254683;23;20031;-67
2024/01/05 09:26:55;;;;;;;28.80;13.35;;;;;;;-1.42;97.29;100126.75;6254201;23;20020;-67
2024/01/05 09:29:22;;;;;;;21.05;10.45;;;;;;;-1.37;96.90;100133.56;6255220;23;20038;-66
2024/01/05 09:31:50;;;;;;;16.27;9.02;;;;;;;-1.46;96.88;100123.38;6256600;23;20028;-66
2024/01/05 09:34:17;;;;;;;19.42;11.02;;;;;;;-1.49;96.91;100134.16;6252602;23;20028;-65
2024/01/05 09:36:43;;;;;;;18.70;10.05;;;;;;;-1.47;96.95;100123.44;6251256;23;20027;-65
2024/01/05 09:39:13;;;;;;;26.67;10.00;;;;;;;-1.44;97.32;100136.59;6248828;23;20043;-65
2024/01/05 09:41:45;;;;;;;18.38;10.20;;;;;;;-1.47;97.30;100121.63;6248982;23;20027;-65
2024/01/05 09:44:12;;;;;;;20.23;10.27;;;;;;;-1.45;96.92;100129.56;6250078;23;20031;-66
2024/01/05 09:46:40;;;;;;;17.13;10.10;;;;;;;-1.44;97.33;100133.94;6249358;23;20047;-65
2024/01/05 09:49:08;;;;;;;18.63;9.45;;;;;;;-1.43;96.83;100127.69;6247676;23;20083;-66
2024/01/05 09:51:35;;;;;;;15.52;8.88;;;;;;;-1.45;97.40;100125.09;6247548;23;20028;-66
2024/01/05 09:54:02;;;;;;;23.77;10.35;;;;;;;-1.46;97.11;100123.38;6248068;23;20016;-66
2024/01/05 09:56:29;;;;;;;18.63;10.68;;;;;;;-1.48;97.42;100127.03;6248098;23;20099;-65
2024/01/05 09:58:56;;;;;;;16.33;9.38;;;;;;;-1.47;97.28;100120.78;6247141;23;20051;-65
2024/01/05 10:01:30;;;;;;;20.77;10.25;;;;;;;-1.43;97.35;100127.69;6245198;23;20073;-65
2024/01/05 10:04:01;;;;;;;18.25;10.07;;;;;;;-1.40;97.51;100127.53;6246292;23;20044;-65
2024/01/05 10:06:30;;;;;;;20.92;9.93;;;;;;;-1.42;97.46;100113.44;6245227;23;20048;-67
2024/01/05 10:08:58;;;;;;;27.77;11.65;;;;;;;-1.45;97.34;100114.47;6219142;23;20040;-65
2024/01/05 10:11:33;;;;;;;17.23;9.70;;;;;;;-1.41;97.35;100109.84;6245476;23;20028;-65
2024/01/05 10:14:06;;;;;;;23.23;10.25;;;;;;;-1.40;97.60;100111.56;6247196;23;20359;-65
2024/01/05 10:16:39;;;;;;;20.67;10.13;;;;;;;-1.34;97.01;100100.63;6236876;22;20024;-65
2024/01/05 10:19:14;;;;;;;18.08;10.30;;;;;;;-1.40;97.84;100103.59;6276797;22;20027;-65
2024/01/05 10:21:46;;;;;;;16.40;9.88;;;;;;;-1.41;97.51;100104.53;6276288;22;20043;-65
2024/01/05 10:24:25;;;;;;;17.50;10.13;;;;;;;-1.40;97.39;100100.94;6276747;22;20030;-65
2024/01/05 10:27:08;;;;;;;16.95;9.57;;;;;;;-1.42;97.70;100102.81;6277610;22;20078;-64
2024/01/05 10:29:42;;;;;;;21.17;11.45;;;;;;;-1.42;97.95;100103.66;6277166;22;20020;-64
2024/01/05 10:32:10;;;;;;;21.73;10.85;;;;;;;-1.45;98.42;100087.88;6277609;22;20020;-65
2024/01/05 10:34:38;;;;;;;18.33;10.93;;;;;;;-1.39;97.80;100082.22;6277303;22;20089;-65
2024/01/05 10:37:05;;;;;;;18.17;10.60;;;;;;;-1.45;98.04;100084.34;6277972;22;20530;-64
2024/01/05 10:39:32;;;;;;;17.95;10.45;;;;;;;-1.47;97.77;100079.06;6278007;22;20336;-64
2024/01/05 10:42:21;;;;;;;23.90;11.68;;;;;;;-1.44;97.96;100081.59;6276347;22;20047;-65
2024/01/05 10:44:51;;;;;;;21.45;10.70;;;;;;;-1.42;98.00;100087.72;6276315;22;20023;-65
2024/01/05 10:47:23;;;;;;;21.42;10.85;;;;;;;-1.40;98.28;100083.16;6274853;22;20050;-65
2024/01/05 10:49:52;;;;;;;22.17;11.50;;;;;;;-1.42;98.17;100074.41;6274856;22;20020;-65
2024/01/05 10:52:27;;;;;;;19.42;10.43;;;;;;;-1.44;98.13;100073.63;6275497;22;20111;-65
2024/01/05 10:54:53;;;;;;;19.38;9.93;;;;;;;-1.45;98.19;100065.72;6275672;22;20027;-64
2024/01/05 10:57:21;;;;;;;21.85;11.52;;;;;;;-1.42;98.38;100057.59;6273883;22;20164;-66
2024/01/05 10:59:52;;;;;;;16.83;10.32;;;;;;;-1.44;98.32;100052.34;6275339;22;20016;-64
2024/01/05 11:02:40;;;;;;;21.13;10.85;;;;;;;-1.43;98.73;100047.91;6274546;22;20484;-66
2024/01/05 11:05:09;;;;;;;20.65;10.93;;;;;;;-1.44;98.30;100041.72;6273807;22;20111;-66
2024/01/05 11:07:38;;;;;;;16.40;10.55;;;;;;;-1.40;98.72;100037.09;6274788;22;20019;-66
2024/01/05 11:10:19;;;;;;;19.13;11.20;;;;;;;-1.38;98.54;100030.75;6274518;22;20413;-64
2024/01/05 11:13:24;;;;;;;25.40;12.48;;;;;;;-1.37;98.61;100031.63;6273846;22;20077;-65
2024/01/05 11:16:10;;;;;;;18.42;11.00;;;;;;;-1.39;98.04;100026.38;6274098;22;20024;-64
2024/01/05 11:19:12;;;;;;;18.63;10.88;;;;;;;-1.38;98.15;100024.56;6274101;22;20519;-64
2024/01/05 11:21:48;;;;;;;;;;;;;;;-1.39;98.67;100009.56;6274735;22;20023;-64